Time;durP1;ratioP1;P1;durP2;ratioP2;P2;SDS_P1;SDS_P2;PMS_P1;PMS_P2;Temp;Humidity;BMP_temperature;BMP_pressure;BME280_temperature;BME280_humidity;BME280_pressure;Samples;Min_cycle;Max_cycle;Signal;HPM_P1;HPM_P2
2023/10/17 00:01:16;;;;;;;21.00;14.00;;;;;;;;;;5100234;28;20488;-63
2023/10/17 00:03:45;;;;;;;22.67;13.57;;;;;;;;;;5102721;28;21128;-63
2023/10/17 00:06:16;;;;;;;21.65;13.75;;;;;;;;;;5095028;28;20421;-64
2023/10/17 00:08:43;;;;;;;17.73;13.48;;;;;;;;;;5099785;28;20952;-63
2023/10/17 00:11:21;;;;;;;23.58;13.48;;;;;;;;;;5102492;28;20411;-63
2023/10/17 00:14:02;;;;;;;20.88;14.00;;;;;;;;;;5102293;28;20405;-63
2023/10/17 00:16:32;;;;;;;20.92;13.65;;;;;;;;;;5102709;28;20744;-63
2023/10/17 00:19:04;;;;;;;19.58;13.63;;;;;;;;;;5100852;28;20497;-63
2023/10/17 00:21:33;;;;;;;23.10;13.55;;;;;;;;;;5099982;27;20899;-63
2023/10/17 00:24:02;;;;;;;20.20;13.40;;;;;;;;;;5096979;28;20398;-63
2023/10/17 00:26:31;;;;;;;19.90;13.43;;;;;;;;;;5100852;28;20459;-64
2023/10/17 00:28:58;;;;;;;19.60;13.30;;;;;;;;;;5102672;28;20408;-63
2023/10/17 00:31:25;;;;;;;20.08;12.77;;;;;;;;;;5100467;28;20815;-64
2023/10/17 00:33:57;;;;;;;21.88;14.65;;;;;;;;;;5099572;28;20422;-64
2023/10/17 00:36:26;;;;;;;22.92;14.15;;;;;;;;;;5095471;28;20843;-64
2023/10/17 00:39:07;;;;;;;19.42;13.85;;;;;;;;;;5101266;28;20771;-64
2023/10/17 00:41:48;;;;;;;18.17;13.43;;;;;;;;;;5101670;28;20408;-64
2023/10/17 00:44:17;;;;;;;20.52;13.98;;;;;;;;;;5099924;28;21071;-64
2023/10/17 00:46:45;;;;;;;21.77;13.47;;;;;;;;;;5102173;28;20408;-64
2023/10/17 00:49:12;;;;;;;20.73;13.93;;;;;;;;;;5102612;28;20559;-64
2023/10/17 00:51:40;;;;;;;19.98;13.60;;;;;;;;;;5100244;28;20749;-64
2023/10/17 00:54:11;;;;;;;19.13;12.83;;;;;;;;;;5100819;28;20486;-63
2023/10/17 00:56:40;;;;;;;21.20;12.77;;;;;;;;;;5102605;28;20455;-64
2023/10/17 00:59:08;;;;;;;17.70;12.73;;;;;;;;;;5101072;28;20540;-64
2023/10/17 01:01:35;;;;;;;17.40;13.23;;;;;;;;;;5099883;28;20494;-64
2023/10/17 01:04:02;;;;;;;18.55;12.93;;;;;;;;;;5102339;28;20487;-64
2023/10/17 01:06:37;;;;;;;19.58;12.65;;;;;;;;;;5100404;28;20402;-64
2023/10/17 01:09:17;;;;;;;17.50;11.65;;;;;;;;;;5099071;28;20453;-64
2023/10/17 01:11:47;;;;;;;16.93;11.67;;;;;;;;;;5099780;28;20406;-64
2023/10/17 01:14:18;;;;;;;15.90;12.52;;;;;;;;;;5096767;28;20402;-64
2023/10/17 01:16:46;;;;;;;15.75;11.60;;;;;;;;;;5100006;28;20416;-64
2023/10/17 01:19:15;;;;;;;16.65;13.32;;;;;;;;;;5102108;28;20447;-63
2023/10/17 01:21:42;;;;;;;21.00;13.45;;;;;;;;;;5100442;28;20410;-64
2023/10/17 01:24:11;;;;;;;17.80;12.45;;;;;;;;;;5099969;28;20459;-63
2023/10/17 01:26:39;;;;;;;19.30;12.50;;;;;;;;;;5101074;28;20442;-63
2023/10/17 01:29:10;;;;;;;17.90;12.73;;;;;;;;;;5110326;28;20404;-63
2023/10/17 01:31:42;;;;;;;17.77;11.77;;;;;;;;;;5112133;28;20918;-64
2023/10/17 01:34:09;;;;;;;18.52;12.60;;;;;;;;;;5104484;28;20441;-63
2023/10/17 01:36:37;;;;;;;17.27;12.75;;;;;;;;;;5096116;28;20405;-64
2023/10/17 01:39:06;;;;;;;18.83;12.88;;;;;;;;;;5104064;28;20408;-64
2023/10/17 01:41:34;;;;;;;18.07;13.20;;;;;;;;;;5104697;28;20406;-63
2023/10/17 01:44:02;;;;;;;20.42;13.30;;;;;;;;;;5103461;27;20406;-64
2023/10/17 01:46:29;;;;;;;20.88;13.35;;;;;;;;;;5099615;28;20496;-64
2023/10/17 01:48:57;;;;;;;18.95;13.18;;;;;;;;;;5104611;28;20411;-64
2023/10/17 01:51:26;;;;;;;17.75;13.05;;;;;;;;;;5106404;28;20482;-64
2023/10/17 01:53:53;;;;;;;17.30;12.57;;;;;;;;;;5103455;28;20510;-64
2023/10/17 01:56:25;;;;;;;17.20;11.80;;;;;;;;;;5103949;28;20427;-64
2023/10/17 01:58:55;;;;;;;16.02;12.02;;;;;;;;;;5105825;28;20465;-64
2023/10/17 02:01:24;;;;;;;17.60;11.68;;;;;;;;;;5103862;28;20467;-64
2023/10/17 02:03:52;;;;;;;14.27;11.10;;;;;;;;;;5102790;27;20464;-64
2023/10/17 02:06:21;;;;;;;15.57;11.73;;;;;;;;;;5098971;28;20409;-64
2023/10/17 02:08:48;;;;;;;15.60;12.20;;;;;;;;;;5102661;28;20416;-63
2023/10/17 02:11:23;;;;;;;15.98;11.75;;;;;;;;;;5102575;27;20502;-63
2023/10/17 02:13:51;;;;;;;17.92;13.05;;;;;;;;;;5106591;28;20413;-64
2023/10/17 02:16:19;;;;;;;18.00;11.90;;;;;;;;;;5102440;27;20487;-64
2023/10/17 02:18:48;;;;;;;17.00;11.97;;;;;;;;;;5105187;27;20441;-64
2023/10/17 02:21:15;;;;;;;20.23;11.10;;;;;;;;;;5104633;28;20404;-64
2023/10/17 02:23:49;;;;;;;17.38;11.88;;;;;;;;;;5102333;28;20410;-64
2023/10/17 02:26:21;;;;;;;18.45;12.82;;;;;;;;;;5103610;28;20404;-64
2023/10/17 02:28:48;;;;;;;19.75;12.60;;;;;;;;;;5105093;28;20405;-64
2023/10/17 02:31:15;;;;;;;17.90;13.05;;;;;;;;;;5103166;28;20864;-64
2023/10/17 02:33:44;;;;;;;17.63;13.20;;;;;;;;;;5103131;28;20413;-63
2023/10/17 02:36:13;;;;;;;18.27;12.88;;;;;;;;;;5098638;28;20420;-64
2023/10/17 02:38:40;;;;;;;19.45;13.05;;;;;;;;;;5101467;28;20832;-63
2023/10/17 02:41:12;;;;;;;19.52;12.82;;;;;;;;;;5102912;28;20406;-64
2023/10/17 02:43:40;;;;;;;20.13;13.20;;;;;;;;;;5102458;28;20406;-64
2023/10/17 02:46:08;;;;;;;19.42;12.95;;;;;;;;;;5103284;28;20489;-63
2023/10/17 02:48:42;;;;;;;20.02;13.05;;;;;;;;;;5105179;28;20404;-64
2023/10/17 02:53:56;;;;;;;20.85;14.15;;;;;;;;;;5101867;28;20475;-64
2023/10/17 02:56:24;;;;;;;27.50;14.95;;;;;;;;;;5103074;28;20422;-63
2023/10/17 02:58:59;;;;;;;33.65;17.15;;;;;;;;;;5100049;28;20409;-63
2023/10/17 03:01:27;;;;;;;34.13;18.67;;;;;;;;;;5106513;28;20411;-63
2023/10/17 03:03:54;;;;;;;35.55;18.20;;;;;;;;;;5099152;28;20406;-63
2023/10/17 03:06:22;;;;;;;31.55;17.80;;;;;;;;;;5098609;28;20406;-64
2023/10/17 03:08:51;;;;;;;30.50;17.92;;;;;;;;;;5103782;28;20411;-64
2023/10/17 03:11:35;;;;;;;36.00;18.60;;;;;;;;;;5098851;28;20416;-64
2023/10/17 03:14:10;;;;;;;28.63;17.60;;;;;;;;;;5097990;28;20402;-64
2023/10/17 03:16:40;;;;;;;29.63;18.08;;;;;;;;;;5102070;28;20422;-64
2023/10/17 03:19:11;;;;;;;29.90;17.17;;;;;;;;;;5099049;28;20480;-64
2023/10/17 03:21:43;;;;;;;27.77;16.70;;;;;;;;;;5102263;28;21025;-64
2023/10/17 03:24:10;;;;;;;29.92;16.60;;;;;;;;;;5097513;28;20409;-64
2023/10/17 03:26:39;;;;;;;25.60;15.68;;;;;;;;;;5102772;28;20404;-64
2023/10/17 03:29:14;;;;;;;26.25;15.63;;;;;;;;;;5103884;28;20957;-64
2023/10/17 03:31:42;;;;;;;27.23;16.55;;;;;;;;;;5099641;28;20406;-64
2023/10/17 03:34:12;;;;;;;27.73;15.77;;;;;;;;;;5101239;28;20406;-63
2023/10/17 03:36:41;;;;;;;24.85;15.60;;;;;;;;;;5095350;28;20426;-64
2023/10/17 03:39:20;;;;;;;25.57;14.90;;;;;;;;;;5101257;28;20562;-64
2023/10/17 03:41:48;;;;;;;25.73;15.77;;;;;;;;;;5098598;28;20410;-64
2023/10/17 03:44:16;;;;;;;22.37;14.77;;;;;;;;;;5101407;28;21114;-64
2023/10/17 03:46:46;;;;;;;25.60;15.40;;;;;;;;;;5103527;28;20439;-64
2023/10/17 03:49:18;;;;;;;23.98;15.60;;;;;;;;;;5100897;28;20410;-64
2023/10/17 03:51:51;;;;;;;23.23;15.07;;;;;;;;;;5100452;28;20406;-64
2023/10/17 03:54:18;;;;;;;22.80;14.98;;;;;;;;;;5102083;28;20824;-64
2023/10/17 03:56:46;;;;;;;23.58;15.23;;;;;;;;;;5103317;28;20484;-64
2023/10/17 03:59:27;;;;;;;18.48;13.68;;;;;;;;;;5097343;28;20402;-64
2023/10/17 04:01:54;;;;;;;21.33;14.10;;;;;;;;;;5100209;28;20402;-64
2023/10/17 04:04:33;;;;;;;18.85;13.68;;;;;;;;;;5102181;28;20416;-64
2023/10/17 04:07:04;;;;;;;21.08;15.73;;;;;;;;;;5101604;28;20415;-63
2023/10/17 04:09:37;;;;;;;19.65;14.10;;;;;;;;;;5099404;28;20411;-64
2023/10/17 04:12:05;;;;;;;20.45;15.13;;;;;;;;;;5103313;28;20445;-63
2023/10/17 04:14:34;;;;;;;19.53;14.80;;;;;;;;;;5101335;28;20440;-64
2023/10/17 04:17:03;;;;;;;21.60;14.18;;;;;;;;;;5100389;28;20505;-64
2023/10/17 04:19:32;;;;;;;21.33;15.63;;;;;;;;;;5097027;28;20398;-64
2023/10/17 04:22:07;;;;;;;21.17;15.38;;;;;;;;;;5101184;28;20902;-64
2023/10/17 04:24:35;;;;;;;21.92;15.38;;;;;;;;;;5096690;28;20435;-64
2023/10/17 04:27:22;;;;;;;21.83;15.07;;;;;;;;;;5098125;27;20451;-63
2023/10/17 04:29:56;;;;;;;20.63;14.50;;;;;;;;;;5099435;28;20405;-63
2023/10/17 04:32:27;;;;;;;24.30;16.92;;;;;;;;;;5095000;28;20488;-64
2023/10/17 04:34:55;;;;;;;23.05;15.45;;;;;;;;;;5099770;28;20406;-63
2023/10/17 04:37:32;;;;;;;21.25;14.45;;;;;;;;;;5095100;28;20714;-64
2023/10/17 04:43:07;;;;;;;20.65;15.18;;;;;;;;;;5105399;28;20410;-63
2023/10/17 04:45:34;;;;;;;21.80;15.05;;;;;;;;;;5101477;28;20423;-64
2023/10/17 04:48:11;;;;;;;19.27;14.37;;;;;;;;;;5099498;28;20584;-64
2023/10/17 04:50:44;;;;;;;19.38;14.02;;;;;;;;;;5100095;28;20456;-64
2023/10/17 04:53:19;;;;;;;19.75;14.52;;;;;;;;;;5097071;28;20417;-64
2023/10/17 04:56:02;;;;;;;19.35;14.57;;;;;;;;;;5099257;28;20852;-64
2023/10/17 04:58:39;;;;;;;19.75;13.77;;;;;;;;;;5101435;28;20408;-64
2023/10/17 05:01:34;;;;;;;22.63;15.73;;;;;;;;;;5098230;28;21059;-64
2023/10/17 05:04:02;;;;;;;23.45;16.38;;;;;;;;;;5100891;28;20404;-64
2023/10/17 06:17:53;;;;;;;16.60;12.27;;;;;;;;;;5102481;28;20392;-64
2023/10/17 06:20:43;;;;;;;16.20;12.93;;;;;;;;;;5104475;28;20412;-64
2023/10/17 06:24:05;;;;;;;15.10;12.45;;;;;;;;;;5100482;28;20829;-64
2023/10/17 06:26:46;;;;;;;16.88;11.93;;;;;;;;;;5104691;28;21043;-65
2023/10/17 06:32:07;;;;;;;19.33;14.00;;;;;;;;;;5100833;28;20884;-64
2023/10/17 06:34:34;;;;;;;19.38;13.93;;;;;;;;;;5097534;28;20406;-65
2023/10/17 06:37:02;;;;;;;18.40;13.75;;;;;;;;;;5098944;28;20834;-65
2023/10/17 06:39:37;;;;;;;17.88;13.60;;;;;;;;;;5101201;28;20964;-66
2023/10/17 06:42:14;;;;;;;19.33;14.38;;;;;;;;;;5103341;28;20404;-63
2023/10/17 06:44:51;;;;;;;21.17;13.73;;;;;;;;;;5098289;28;20402;-63
2023/10/17 06:47:18;;;;;;;15.50;12.68;;;;;;;;;;5101533;28;20506;-63
2023/10/17 06:52:57;;;;;;;16.77;11.95;;;;;;;;;;5080047;28;20352;-64
2023/10/17 06:55:29;;;;;;;16.38;12.40;;;;;;;;;;5075609;28;20431;-64
2023/10/17 06:58:04;;;;;;;16.33;12.57;;;;;;;;;;5076261;28;20417;-64
2023/10/17 07:00:42;;;;;;;19.17;13.73;;;;;;;;;;5077287;28;20426;-64
2023/10/17 07:03:13;;;;;;;16.27;12.27;;;;;;;;;;5073272;28;20502;-64
2023/10/17 07:05:40;;;;;;;14.98;11.80;;;;;;;;;;5072277;28;20409;-65
2023/10/17 07:08:14;;;;;;;16.30;11.57;;;;;;;;;;5076486;28;20602;-64
2023/10/17 07:10:53;;;;;;;20.88;11.77;;;;;;;;;;5077830;28;20426;-64
2023/10/17 07:13:41;;;;;;;16.30;12.48;;;;;;;;;;5073974;28;20412;-64
2023/10/17 07:16:12;;;;;;;15.38;12.10;;;;;;;;;;5074247;28;20408;-64
2023/10/17 07:18:46;;;;;;;17.30;12.60;;;;;;;;;;5075978;28;20409;-65
2023/10/17 07:21:17;;;;;;;14.17;12.10;;;;;;;;;;5077277;28;20446;-65
2023/10/17 07:23:48;;;;;;;16.63;12.38;;;;;;;;;;5077378;28;20511;-64
2023/10/17 07:26:17;;;;;;;15.55;12.50;;;;;;;;;;5070606;28;20835;-66
2023/10/17 07:28:44;;;;;;;17.23;12.40;;;;;;;;;;5063015;28;20428;-65
2023/10/17 07:31:12;;;;;;;16.58;11.50;;;;;;;;;;5077415;28;21060;-65
2023/10/17 07:33:39;;;;;;;16.95;11.95;;;;;;;;;;5071465;28;20430;-67
2023/10/17 07:36:13;;;;;;;17.02;12.60;;;;;;;;;;5063831;28;20420;-65
2023/10/17 07:38:41;;;;;;;15.38;12.98;;;;;;;;;;5071643;28;20448;-65
2023/10/17 07:41:13;;;;;;;18.05;13.40;;;;;;;;;;5071607;28;20413;-66
2023/10/17 07:43:43;;;;;;;16.17;13.68;;;;;;;;;;5066233;28;20505;-66
2023/10/17 07:46:16;;;;;;;17.27;13.63;;;;;;;;;;5073831;28;20466;-66
2023/10/17 07:48:48;;;;;;;19.05;13.35;;;;;;;;;;5078052;28;20411;-66
2023/10/17 07:51:15;;;;;;;17.60;13.52;;;;;;;;;;5080664;28;20459;-66
2023/10/17 07:53:45;;;;;;;17.48;13.02;;;;;;;;;;5085726;28;20415;-66
2023/10/17 07:56:20;;;;;;;17.38;13.23;;;;;;;;;;5081139;28;20417;-67
2023/10/17 07:58:56;;;;;;;23.85;16.70;;;;;;;;;;5081898;28;20415;-67
2023/10/17 08:01:31;;;;;;;13.15;10.73;;;;;;;;;;5073816;28;20409;-67
2023/10/17 08:04:13;;;;;;;16.23;12.35;;;;;;;;;;5058101;28;20417;-66
2023/10/17 08:06:40;;;;;;;14.85;10.40;;;;;;;;;;5054529;28;20409;-65
2023/10/17 08:09:17;;;;;;;13.30;9.88;;;;;;;;;;5058266;28;20415;-66
2023/10/17 08:11:51;;;;;;;14.95;10.00;;;;;;;;;;5065725;28;20434;-66
2023/10/17 08:14:22;;;;;;;13.07;9.75;;;;;;;;;;5062979;28;20455;-66
2023/10/17 08:16:50;;;;;;;12.93;10.27;;;;;;;;;;5066692;28;20420;-66
2023/10/17 08:19:21;;;;;;;13.38;9.45;;;;;;;;;;5052260;28;20453;-67
2023/10/17 08:24:40;;;;;;;12.73;9.70;;;;;;;;;;5056684;28;20492;-66
2023/10/17 08:27:40;;;;;;;11.75;9.93;;;;;;;;;;5048781;28;20542;-67
2023/10/17 08:30:14;;;;;;;12.80;9.13;;;;;;;;;;5060022;28;20404;-65
2023/10/17 08:32:55;;;;;;;13.73;10.90;;;;;;;;;;5057023;28;20827;-63
2023/10/17 08:35:26;;;;;;;15.75;11.10;;;;;;;;;;5057535;28;20404;-63
2023/10/17 08:37:55;;;;;;;14.57;11.85;;;;;;;;;;5062508;28;20510;-64
2023/10/17 08:40:32;;;;;;;14.68;12.27;;;;;;;;;;5063204;28;20491;-64
2023/10/17 08:43:01;;;;;;;16.65;11.75;;;;;;;;;;5063300;28;20407;-64
2023/10/17 08:45:27;;;;;;;14.93;11.80;;;;;;;;;;5057052;28;20425;-65
2023/10/17 08:47:59;;;;;;;16.13;11.85;;;;;;;;;;5061205;28;20454;-64
2023/10/17 08:50:26;;;;;;;15.65;11.35;;;;;;;;;;5064575;28;20430;-64
2023/10/17 08:52:54;;;;;;;14.85;11.52;;;;;;;;;;5079826;28;20422;-65
2023/10/17 08:55:22;;;;;;;16.30;11.30;;;;;;;;;;5082139;28;20448;-65
2023/10/17 08:57:51;;;;;;;13.15;10.55;;;;;;;;;;5079643;28;20458;-65
2023/10/17 09:00:48;;;;;;;14.63;9.18;;;;;;;;;;5082157;28;20441;-67
2023/10/17 09:03:20;;;;;;;12.30;8.98;;;;;;;;;;5080842;28;20401;-64
2023/10/17 09:06:07;;;;;;;10.02;8.52;;;;;;;;;;5076402;28;20916;-63
2023/10/17 09:08:49;;;;;;;13.50;9.02;;;;;;;;;;5076165;28;20428;-64
2023/10/17 09:11:29;;;;;;;11.55;8.93;;;;;;;;;;5076898;28;20422;-63
2023/10/17 09:16:48;;;;;;;8.55;7.55;;;;;;;;;;5079596;28;20469;-64
2023/10/17 09:19:16;;;;;;;10.02;7.03;;;;;;;;;;5077602;28;20426;-67
2023/10/17 09:21:47;;;;;;;10.33;6.57;;;;;;;;;;5082980;28;20442;-69
2023/10/17 09:24:35;;;;;;;9.63;6.97;;;;;;;;;;5076372;28;20587;-69
2023/10/17 09:27:06;;;;;;;9.90;6.38;;;;;;;;;;5075948;28;20407;-67
2023/10/17 09:29:42;;;;;;;9.45;6.57;;;;;;;;;;5078121;28;20411;-67
2023/10/17 09:32:10;;;;;;;8.45;6.60;;;;;;;;;;5081001;28;20410;-67
2023/10/17 09:34:38;;;;;;;8.77;5.97;;;;;;;;;;5079066;28;20415;-65
2023/10/17 09:37:12;;;;;;;8.73;6.85;;;;;;;;;;5073418;28;20415;-63
2023/10/17 09:39:46;;;;;;;9.80;7.45;;;;;;;;;;5079743;28;20423;-65
2023/10/17 09:42:13;;;;;;;9.07;6.95;;;;;;;;;;5077677;28;20403;-64
2023/10/17 09:44:40;;;;;;;9.95;6.65;;;;;;;;;;5080514;28;20461;-64
2023/10/17 09:47:08;;;;;;;7.05;4.72;;;;;;;;;;5082162;28;20410;-64
2023/10/17 09:49:38;;;;;;;7.17;5.40;;;;;;;;;;5080409;28;20472;-65
2023/10/17 09:52:09;;;;;;;7.67;5.10;;;;;;;;;;5079673;28;20484;-65
2023/10/17 09:54:40;;;;;;;9.48;5.65;;;;;;;;;;5076921;28;20420;-64
2023/10/17 09:57:08;;;;;;;6.63;4.93;;;;;;;;;;5079538;28;20825;-65
2023/10/17 09:59:40;;;;;;;7.88;4.93;;;;;;;;;;5081830;28;20441;-64
2023/10/17 10:02:08;;;;;;;9.68;4.90;;;;;;;;;;5080670;28;20407;-67
2023/10/17 10:04:38;;;;;;;7.07;5.15;;;;;;;;;;5078296;28;20400;-66
2023/10/17 10:07:20;;;;;;;8.43;5.00;;;;;;;;;;5074034;28;20416;-66
2023/10/17 10:09:47;;;;;;;7.07;4.75;;;;;;;;;;5075577;28;20408;-66
2023/10/17 10:12:15;;;;;;;6.05;4.38;;;;;;;;;;5080392;28;20449;-67
2023/10/17 10:14:47;;;;;;;7.75;5.05;;;;;;;;;;5081773;28;20420;-66
2023/10/17 10:17:15;;;;;;;7.45;4.63;;;;;;;;;;5076565;28;20889;-65
2023/10/17 10:20:02;;;;;;;7.50;4.97;;;;;;;;;;5079184;28;20416;-64
2023/10/17 10:22:59;;;;;;;7.88;5.25;;;;;;;;;;5079892;28;20413;-64
2023/10/17 10:25:27;;;;;;;8.35;5.07;;;;;;;;;;4974041;28;20451;-64
2023/10/17 10:28:13;;;;;;;8.32;4.82;;;;;;;;;;5059021;28;20437;-64
2023/10/17 10:30:43;;;;;;;6.63;4.40;;;;;;;;;;5081542;28;20407;-64
2023/10/17 10:33:11;;;;;;;8.10;4.60;;;;;;;;;;5082872;28;20429;-64
2023/10/17 10:35:39;;;;;;;6.72;4.47;;;;;;;;;;5075384;28;20411;-67
2023/10/17 10:38:06;;;;;;;7.03;4.45;;;;;;;;;;5079952;28;20404;-65
2023/10/17 10:40:40;;;;;;;6.07;4.30;;;;;;;;;;5081736;28;20410;-66
2023/10/17 10:43:11;;;;;;;6.20;4.55;;;;;;;;;;5080499;28;20420;-66
2023/10/17 10:45:42;;;;;;;6.10;3.88;;;;;;;;;;5078622;28;20829;-66
2023/10/17 10:48:14;;;;;;;4.90;3.80;;;;;;;;;;5079712;28;20421;-65
2023/10/17 10:50:42;;;;;;;6.05;3.70;;;;;;;;;;5081459;28;20501;-64
2023/10/17 10:53:19;;;;;;;6.27;3.03;;;;;;;;;;5079273;28;20556;-64
2023/10/17 10:55:53;;;;;;;4.85;2.10;;;;;;;;;;5078418;28;20457;-66
2023/10/17 10:58:20;;;;;;;5.13;2.80;;;;;;;;;;5079473;28;20459;-65
2023/10/17 11:00:48;;;;;;;4.85;3.00;;;;;;;;;;5080808;28;20815;-65
2023/10/17 11:03:17;;;;;;;4.38;3.15;;;;;;;;;;5075309;28;20407;-68
2023/10/17 11:05:54;;;;;;;4.22;3.00;;;;;;;;;;5073491;28;20415;-66
2023/10/17 11:08:21;;;;;;;3.90;2.50;;;;;;;;;;5074968;28;20402;-64
2023/10/17 11:10:49;;;;;;;5.20;2.90;;;;;;;;;;5080147;28;20414;-64
2023/10/17 11:13:17;;;;;;;7.40;3.40;;;;;;;;;;5076138;28;20427;-64
2023/10/17 11:15:44;;;;;;;6.82;4.70;;;;;;;;;;5081317;28;20481;-64
2023/10/17 11:18:12;;;;;;;6.35;5.10;;;;;;;;;;5081752;28;20896;-64
2023/10/17 11:20:46;;;;;;;7.70;4.90;;;;;;;;;;5081525;28;20413;-64
2023/10/17 11:23:14;;;;;;;6.68;5.00;;;;;;;;;;5079913;28;20407;-64
2023/10/17 11:25:44;;;;;;;7.47;5.45;;;;;;;;;;5074634;28;20436;-68
2023/10/17 11:28:11;;;;;;;6.35;4.70;;;;;;;;;;5077091;28;20850;-66
2023/10/17 11:30:42;;;;;;;7.88;5.00;;;;;;;;;;5079940;28;20425;-65
2023/10/17 11:33:11;;;;;;;7.93;5.57;;;;;;;;;;5078065;28;20427;-66
2023/10/17 11:35:39;;;;;;;6.78;5.35;;;;;;;;;;5074487;28;20418;-65
2023/10/17 11:38:07;;;;;;;9.02;5.88;;;;;;;;;;5080332;28;20764;-70
2023/10/17 11:40:45;;;;;;;6.57;5.20;;;;;;;;;;5078233;28;20515;-65
2023/10/17 11:43:16;;;;;;;9.40;6.03;;;;;;;;;;5081863;28;20453;-65
2023/10/17 11:45:45;;;;;;;9.00;5.68;;;;;;;;;;5079534;28;20435;-65
2023/10/17 11:48:27;;;;;;;6.85;5.88;;;;;;;;;;5081706;28;20790;-66
2023/10/17 11:51:16;;;;;;;9.05;5.53;;;;;;;;;;5078393;28;20921;-64
2023/10/17 11:54:05;;;;;;;8.57;5.50;;;;;;;;;;5082339;28;20479;-65
2023/10/17 11:56:32;;;;;;;6.60;4.90;;;;;;;;;;5082554;28;20449;-65
2023/10/17 11:59:01;;;;;;;6.22;4.40;;;;;;;;;;5073736;28;20477;-64
2023/10/17 12:01:29;;;;;;;6.15;5.05;;;;;;;;;;5080336;28;20503;-64
2023/10/17 12:03:57;;;;;;;7.23;4.90;;;;;;;;;;5084292;28;20463;-65
2023/10/17 12:06:27;;;;;;;9.43;5.30;;;;;;;;;;5074169;28;20871;-69
2023/10/17 12:08:54;;;;;;;6.43;5.13;;;;;;;;;;5075669;28;20419;-64
2023/10/17 12:11:24;;;;;;;9.13;4.30;;;;;;;;;;5083535;28;20467;-64
2023/10/17 12:13:51;;;;;;;7.30;4.57;;;;;;;;;;5081740;28;20965;-64
2023/10/17 12:16:23;;;;;;;7.60;4.93;;;;;;;;;;5081441;28;20461;-64
2023/10/17 12:18:52;;;;;;;7.13;5.03;;;;;;;;;;5076724;28;20404;-65
2023/10/17 12:21:19;;;;;;;5.05;4.40;;;;;;;;;;5081822;28;20489;-64
2023/10/17 12:23:46;;;;;;;7.57;5.45;;;;;;;;;;5083489;28;20406;-65
2023/10/17 12:26:19;;;;;;;7.53;5.35;;;;;;;;;;5080899;28;20427;-64
2023/10/17 12:28:46;;;;;;;7.63;5.30;;;;;;;;;;5080673;28;20404;-64
2023/10/17 12:31:16;;;;;;;7.13;5.28;;;;;;;;;;5084263;28;20409;-64
2023/10/17 12:33:44;;;;;;;6.80;5.25;;;;;;;;;;5084463;28;20423;-64
2023/10/17 12:36:13;;;;;;;9.02;6.18;;;;;;;;;;5082190;28;20963;-64
2023/10/17 12:38:40;;;;;;;7.57;5.68;;;;;;;;;;5076190;28;20483;-64
2023/10/17 12:41:07;;;;;;;8.27;5.45;;;;;;;;;;5081972;28;20406;-64
2023/10/17 12:43:35;;;;;;;6.35;5.18;;;;;;;;;;5072249;28;20404;-65
2023/10/17 12:46:02;;;;;;;8.18;5.32;;;;;;;;;;5081310;28;20467;-65
2023/10/17 12:48:29;;;;;;;7.75;5.53;;;;;;;;;;5083640;28;20410;-63
2023/10/17 12:50:56;;;;;;;7.60;5.55;;;;;;;;;;5091938;28;20460;-63
2023/10/17 12:53:25;;;;;;;6.78;5.53;;;;;;;;;;5088106;28;20422;-64
2023/10/17 12:55:52;;;;;;;9.67;6.17;;;;;;;;;;5084462;28;20397;-64
2023/10/17 12:58:22;;;;;;;9.82;5.72;;;;;;;;;;5083429;28;20967;-64
2023/10/17 13:00:50;;;;;;;7.63;5.80;;;;;;;;;;5075608;28;20402;-65
2023/10/17 13:03:18;;;;;;;6.88;5.68;;;;;;;;;;5071601;28;20404;-64
2023/10/17 13:05:48;;;;;;;7.27;5.27;;;;;;;;;;5071741;28;20551;-64
2023/10/17 13:08:15;;;;;;;8.77;5.68;;;;;;;;;;5075286;28;20406;-64
2023/10/17 13:10:44;;;;;;;6.80;5.50;;;;;;;;;;5079280;28;20485;-64
2023/10/17 13:13:11;;;;;;;7.88;5.35;;;;;;;;;;5080350;28;20475;-64
2023/10/17 13:15:39;;;;;;;6.15;5.15;;;;;;;;;;5082473;28;20546;-63
2023/10/17 13:18:07;;;;;;;6.80;4.70;;;;;;;;;;5079327;28;20501;-63
2023/10/17 13:20:34;;;;;;;6.40;4.73;;;;;;;;;;5079546;28;20913;-64
2023/10/17 13:23:04;;;;;;;9.18;5.00;;;;;;;;;;5081000;28;20403;-64
2023/10/17 13:25:34;;;;;;;7.47;5.25;;;;;;;;;;5076344;28;20538;-66
2023/10/17 13:28:03;;;;;;;5.45;4.75;;;;;;;;;;5072692;28;20411;-68
2023/10/17 13:30:31;;;;;;;5.40;4.90;;;;;;;;;;5079134;28;20836;-65
2023/10/17 13:32:58;;;;;;;5.43;4.68;;;;;;;;;;5081935;28;20936;-67
2023/10/17 13:35:26;;;;;;;6.30;5.32;;;;;;;;;;5078420;28;20406;-67
2023/10/17 13:37:53;;;;;;;5.05;4.53;;;;;;;;;;5074550;28;20415;-67
2023/10/17 13:40:21;;;;;;;7.35;4.70;;;;;;;;;;5083095;28;20407;-66
2023/10/17 13:42:50;;;;;;;5.93;4.60;;;;;;;;;;5081533;28;20406;-65
2023/10/17 13:45:21;;;;;;;6.45;4.57;;;;;;;;;;5081912;28;20398;-66
2023/10/17 13:47:48;;;;;;;9.20;4.90;;;;;;;;;;5074854;28;20426;-63
2023/10/17 13:50:18;;;;;;;6.20;5.18;;;;;;;;;;5088694;28;20493;-69
2023/10/17 13:52:46;;;;;;;5.65;4.47;;;;;;;;;;5078250;28;20427;-67
2023/10/17 13:55:17;;;;;;;5.80;4.60;;;;;;;;;;5081208;28;20417;-65
2023/10/17 13:57:46;;;;;;;5.63;4.75;;;;;;;;;;5080723;28;20761;-64
2023/10/17 14:00:19;;;;;;;5.53;4.32;;;;;;;;;;5075017;28;20408;-65
2023/10/17 14:02:49;;;;;;;5.82;4.60;;;;;;;;;;5079675;28;20408;-65
2023/10/17 14:05:18;;;;;;;6.22;4.40;;;;;;;;;;5072070;28;20486;-65
2023/10/17 14:07:45;;;;;;;5.40;4.13;;;;;;;;;;5072910;28;20796;-65
2023/10/17 14:10:12;;;;;;;6.10;4.00;;;;;;;;;;5079593;28;20467;-64
2023/10/17 14:12:41;;;;;;;5.13;4.00;;;;;;;;;;5071682;28;20416;-65
2023/10/17 14:15:08;;;;;;;6.80;4.57;;;;;;;;;;5076858;28;20465;-64
2023/10/17 14:17:35;;;;;;;5.75;4.20;;;;;;;;;;5074189;28;21187;-64
2023/10/17 14:20:14;;;;;;;6.40;4.00;;;;;;;;;;5070374;28;20408;-64
2023/10/17 14:22:57;;;;;;;5.53;4.07;;;;;;;;;;5076693;28;20414;-63
2023/10/17 14:28:06;;;;;;;7.50;4.28;;;;;;;;;;5075735;28;20427;-64
2023/10/17 14:30:32;;;;;;;5.28;4.00;;;;;;;;;;5077906;28;20419;-67
2023/10/17 14:32:59;;;;;;;5.68;3.65;;;;;;;;;;5076511;28;20427;-65
2023/10/17 14:35:27;;;;;;;4.80;3.53;;;;;;;;;;5074157;28;20461;-67
2023/10/17 14:37:54;;;;;;;7.60;4.07;;;;;;;;;;5079069;28;20494;-67
2023/10/17 14:40:22;;;;;;;7.18;3.80;;;;;;;;;;5082672;28;20414;-67
2023/10/17 14:42:49;;;;;;;6.13;4.07;;;;;;;;;;5087438;28;20420;-67
2023/10/17 14:45:16;;;;;;;5.68;3.90;;;;;;;;;;5095069;28;20428;-67
2023/10/17 14:47:43;;;;;;;4.70;3.65;;;;;;;;;;5083650;28;20486;-67
2023/10/17 14:50:10;;;;;;;3.80;3.38;;;;;;;;;;5079565;28;20478;-67
2023/10/17 14:52:38;;;;;;;5.22;3.40;;;;;;;;;;5080890;28;20414;-66
2023/10/17 14:55:13;;;;;;;3.83;3.35;;;;;;;;;;5075192;28;20426;-67
2023/10/17 14:57:41;;;;;;;5.70;3.30;;;;;;;;;;5077434;28;20407;-68
2023/10/17 15:00:13;;;;;;;4.65;3.50;;;;;;;;;;5078377;28;20485;-65
2023/10/17 15:02:40;;;;;;;5.18;3.17;;;;;;;;;;5068943;28;20509;-65
2023/10/17 15:05:08;;;;;;;4.37;3.57;;;;;;;;;;5075200;28;20495;-66
2023/10/17 15:07:35;;;;;;;5.30;3.67;;;;;;;;;;5078208;28;20793;-66
2023/10/17 15:10:11;;;;;;;6.65;4.05;;;;;;;;;;5077446;28;20413;-65
2023/10/17 15:12:38;;;;;;;5.13;4.18;;;;;;;;;;5075232;28;20419;-66
2023/10/17 15:15:05;;;;;;;4.80;3.97;;;;;;;;;;5080740;28;20507;-66
2023/10/17 15:17:35;;;;;;;6.95;3.83;;;;;;;;;;5079062;28;20412;-65
2023/10/17 15:20:02;;;;;;;6.97;3.80;;;;;;;;;;5084074;28;20445;-66
2023/10/17 15:22:29;;;;;;;5.68;3.35;;;;;;;;;;5081338;28;20435;-67
2023/10/17 15:24:58;;;;;;;6.32;3.78;;;;;;;;;;5085031;28;20429;-68
2023/10/17 15:27:27;;;;;;;5.85;3.58;;;;;;;;;;5082499;28;20454;-65
2023/10/17 15:29:54;;;;;;;5.57;3.50;;;;;;;;;;5081971;28;20411;-73
2023/10/17 15:32:23;;;;;;;5.18;3.50;;;;;;;;;;5084065;28;20414;-66
2023/10/17 15:34:51;;;;;;;4.43;3.40;;;;;;;;;;5079904;28;20459;-63
2023/10/17 15:37:18;;;;;;;9.55;3.88;;;;;;;;;;5080475;28;20414;-62
2023/10/17 15:39:46;;;;;;;6.38;3.70;;;;;;;;;;5081348;28;20414;-63
2023/10/17 15:42:14;;;;;;;5.03;3.67;;;;;;;;;;5083298;28;20418;-62
2023/10/17 15:44:43;;;;;;;4.97;3.63;;;;;;;;;;5084278;28;20890;-61
2023/10/17 15:47:10;;;;;;;5.53;3.65;;;;;;;;;;5077976;28;20407;-61
2023/10/17 15:49:37;;;;;;;4.25;3.25;;;;;;;;;;5082752;28;20811;-62
2023/10/17 15:52:04;;;;;;;5.45;3.22;;;;;;;;;;5084331;28;20753;-61
2023/10/17 15:54:32;;;;;;;4.63;3.17;;;;;;;;;;5072380;28;20961;-66
2023/10/17 15:56:59;;;;;;;4.15;2.88;;;;;;;;;;5083142;28;20777;-65
2023/10/17 15:59:26;;;;;;;3.70;3.20;;;;;;;;;;5081223;28;20482;-65
2023/10/17 16:01:54;;;;;;;6.45;2.90;;;;;;;;;;5079152;28;20493;-65
2023/10/17 16:04:21;;;;;;;4.45;2.95;;;;;;;;;;5080236;28;20428;-65
2023/10/17 16:06:50;;;;;;;5.20;3.20;;;;;;;;;;5079150;28;20810;-65
2023/10/17 16:09:20;;;;;;;4.85;3.25;;;;;;;;;;5077770;28;20481;-65
2023/10/17 16:11:47;;;;;;;3.67;3.03;;;;;;;;;;5080650;28;20425;-65
2023/10/17 16:14:14;;;;;;;4.55;3.50;;;;;;;;;;5080640;28;20459;-64
2023/10/17 16:16:41;;;;;;;7.60;3.45;;;;;;;;;;5080847;28;20403;-64
2023/10/17 16:19:10;;;;;;;5.85;3.20;;;;;;;;;;5084323;28;20412;-66
2023/10/17 16:21:37;;;;;;;4.38;3.47;;;;;;;;;;5076307;28;20413;-69
2023/10/17 16:24:06;;;;;;;4.53;3.60;;;;;;;;;;5082318;28;20900;-69